sensor_id;sensor_type;location;lat;lon;timestamp;P1;durP1;ratioP1;P2;durP2;ratioP2
39738;SDS011;25422;48.286;8.484;2023-05-08T00:01:31;5.97;;;4.75;;
39738;SDS011;25422;48.286;8.484;2023-05-08T00:03:57;5.78;;;5.28;;
39738;SDS011;25422;48.286;8.484;2023-05-08T00:06:22;5.95;;;4.85;;
39738;SDS011;25422;48.286;8.484;2023-05-08T00:08:47;6.25;;;5.65;;
39738;SDS011;25422;48.286;8.484;2023-05-08T00:11:13;7.72;;;5.68;;
39738;SDS011;25422;48.286;8.484;2023-05-08T00:13:38;8.73;;;6.25;;
39738;SDS011;25422;48.286;8.484;2023-05-08T00:16:05;7.28;;;6.13;;
39738;SDS011;25422;48.286;8.484;2023-05-08T00:18:33;8.55;;;7.45;;
39738;SDS011;25422;48.286;8.484;2023-05-08T00:21:00;9.45;;;7.38;;
39738;SDS011;25422;48.286;8.484;2023-05-08T00:23:25;8.80;;;7.07;;
39738;SDS011;25422;48.286;8.484;2023-05-08T00:25:51;8.88;;;7.20;;
39738;SDS011;25422;48.286;8.484;2023-05-08T00:28:16;9.10;;;7.60;;
39738;SDS011;25422;48.286;8.484;2023-05-08T00:30:41;8.88;;;7.13;;
39738;SDS011;25422;48.286;8.484;2023-05-08T00:33:07;7.97;;;7.15;;
39738;SDS011;25422;48.286;8.484;2023-05-08T00:35:33;8.73;;;7.30;;
39738;SDS011;25422;48.286;8.484;2023-05-08T00:37:58;9.60;;;7.47;;
39738;SDS011;25422;48.286;8.484;2023-05-08T00:40:25;8.00;;;7.20;;
39738;SDS011;25422;48.286;8.484;2023-05-08T00:42:50;7.90;;;7.10;;
39738;SDS011;25422;48.286;8.484;2023-05-08T00:45:16;8.75;;;7.22;;
39738;SDS011;25422;48.286;8.484;2023-05-08T00:47:41;8.13;;;6.80;;
39738;SDS011;25422;48.286;8.484;2023-05-08T00:50:07;7.75;;;6.78;;
39738;SDS011;25422;48.286;8.484;2023-05-08T00:52:33;10.32;;;6.50;;
39738;SDS011;25422;48.286;8.484;2023-05-08T00:55:00;6.78;;;6.05;;
39738;SDS011;25422;48.286;8.484;2023-05-08T00:57:28;8.63;;;6.40;;
39738;SDS011;25422;48.286;8.484;2023-05-08T00:59:56;8.70;;;5.63;;
39738;SDS011;25422;48.286;8.484;2023-05-08T01:02:24;6.15;;;5.55;;
39738;SDS011;25422;48.286;8.484;2023-05-08T01:04:50;6.20;;;4.88;;
39738;SDS011;25422;48.286;8.484;2023-05-08T01:07:17;6.13;;;5.10;;
39738;SDS011;25422;48.286;8.484;2023-05-08T01:09:43;6.35;;;5.07;;
39738;SDS011;25422;48.286;8.484;2023-05-08T01:15:10;5.88;;;4.38;;
39738;SDS011;25422;48.286;8.484;2023-05-08T01:23:16;4.78;;;4.00;;
39738;SDS011;25422;48.286;8.484;2023-05-08T01:29:11;6.60;;;3.80;;
39738;SDS011;25422;48.286;8.484;2023-05-08T01:32:14;4.57;;;3.45;;
39738;SDS011;25422;48.286;8.484;2023-05-08T01:37:33;4.00;;;3.60;;
39738;SDS011;25422;48.286;8.484;2023-05-08T01:40:06;4.20;;;3.80;;
39738;SDS011;25422;48.286;8.484;2023-05-08T01:42:45;4.65;;;3.83;;
39738;SDS011;25422;48.286;8.484;2023-05-08T01:45:25;4.32;;;3.92;;
39738;SDS011;25422;48.286;8.484;2023-05-08T01:48:07;4.40;;;3.88;;
39738;SDS011;25422;48.286;8.484;2023-05-08T01:50:39;4.35;;;3.90;;
39738;SDS011;25422;48.286;8.484;2023-05-08T01:53:14;4.50;;;4.10;;
39738;SDS011;25422;48.286;8.484;2023-05-08T01:55:43;4.15;;;3.75;;
39738;SDS011;25422;48.286;8.484;2023-05-08T01:58:12;4.10;;;3.57;;
39738;SDS011;25422;48.286;8.484;2023-05-08T02:00:39;5.28;;;4.00;;
39738;SDS011;25422;48.286;8.484;2023-05-08T02:03:07;4.03;;;3.60;;
39738;SDS011;25422;48.286;8.484;2023-05-08T02:05:37;4.15;;;3.70;;
39738;SDS011;25422;48.286;8.484;2023-05-08T02:08:05;5.50;;;4.22;;
39738;SDS011;25422;48.286;8.484;2023-05-08T02:10:34;5.63;;;4.13;;
39738;SDS011;25422;48.286;8.484;2023-05-08T02:13:02;4.05;;;3.72;;
39738;SDS011;25422;48.286;8.484;2023-05-08T02:15:28;4.72;;;4.13;;
39738;SDS011;25422;48.286;8.484;2023-05-08T02:17:55;4.13;;;3.72;;
39738;SDS011;25422;48.286;8.484;2023-05-08T02:20:22;5.15;;;4.30;;
39738;SDS011;25422;48.286;8.484;2023-05-08T02:22:49;4.35;;;3.95;;
39738;SDS011;25422;48.286;8.484;2023-05-08T02:25:15;4.38;;;3.97;;
39738;SDS011;25422;48.286;8.484;2023-05-08T02:27:43;6.68;;;4.30;;
39738;SDS011;25422;48.286;8.484;2023-05-08T02:30:12;4.80;;;3.92;;
39738;SDS011;25422;48.286;8.484;2023-05-08T02:32:40;4.20;;;3.80;;
39738;SDS011;25422;48.286;8.484;2023-05-08T02:35:07;4.20;;;3.80;;
39738;SDS011;25422;48.286;8.484;2023-05-08T02:37:36;4.70;;;4.00;;
39738;SDS011;25422;48.286;8.484;2023-05-08T02:40:02;5.78;;;3.95;;
39738;SDS011;25422;48.286;8.484;2023-05-08T02:42:31;4.57;;;4.18;;
39738;SDS011;25422;48.286;8.484;2023-05-08T02:44:57;4.10;;;3.70;;
39738;SDS011;25422;48.286;8.484;2023-05-08T02:47:24;4.38;;;3.70;;
39738;SDS011;25422;48.286;8.484;2023-05-08T02:53:01;4.97;;;3.63;;
39738;SDS011;25422;48.286;8.484;2023-05-08T02:58:18;3.78;;;3.47;;
39738;SDS011;25422;48.286;8.484;2023-05-08T03:01:01;4.80;;;4.40;;
39738;SDS011;25422;48.286;8.484;2023-05-08T03:03:41;4.88;;;3.72;;
39738;SDS011;25422;48.286;8.484;2023-05-08T03:06:12;3.90;;;3.60;;
39738;SDS011;25422;48.286;8.484;2023-05-08T03:08:43;3.90;;;3.53;;
39738;SDS011;25422;48.286;8.484;2023-05-08T03:11:12;4.57;;;3.83;;
39738;SDS011;25422;48.286;8.484;2023-05-08T03:13:40;4.28;;;3.72;;
39738;SDS011;25422;48.286;8.484;2023-05-08T03:16:10;4.20;;;3.70;;
39738;SDS011;25422;48.286;8.484;2023-05-08T03:18:41;4.03;;;3.72;;
39738;SDS011;25422;48.286;8.484;2023-05-08T03:21:13;5.82;;;3.78;;
39738;SDS011;25422;48.286;8.484;2023-05-08T03:23:43;3.60;;;3.30;;
39738;SDS011;25422;48.286;8.484;2023-05-08T03:28:46;4.13;;;3.72;;
39738;SDS011;25422;48.286;8.484;2023-05-08T03:31:13;5.22;;;3.70;;
39738;SDS011;25422;48.286;8.484;2023-05-08T03:36:08;3.75;;;3.40;;
39738;SDS011;25422;48.286;8.484;2023-05-08T03:38:34;3.70;;;3.40;;
39738;SDS011;25422;48.286;8.484;2023-05-08T03:41:00;3.90;;;3.60;;
39738;SDS011;25422;48.286;8.484;2023-05-08T03:43:25;3.80;;;3.50;;
39738;SDS011;25422;48.286;8.484;2023-05-08T03:45:53;4.25;;;3.75;;
39738;SDS011;25422;48.286;8.484;2023-05-08T03:48:21;5.13;;;3.83;;
39738;SDS011;25422;48.286;8.484;2023-05-08T03:50:47;3.97;;;3.60;;
39738;SDS011;25422;48.286;8.484;2023-05-08T03:53:13;4.35;;;3.97;;
39738;SDS011;25422;48.286;8.484;2023-05-08T03:55:39;4.63;;;3.42;;
39738;SDS011;25422;48.286;8.484;2023-05-08T03:58:18;3.60;;;3.30;;
39738;SDS011;25422;48.286;8.484;2023-05-08T04:03:45;4.60;;;3.50;;
39738;SDS011;25422;48.286;8.484;2023-05-08T04:06:28;4.07;;;3.78;;
39738;SDS011;25422;48.286;8.484;2023-05-08T04:09:01;3.97;;;3.67;;
39738;SDS011;25422;48.286;8.484;2023-05-08T04:11:34;3.60;;;3.30;;
39738;SDS011;25422;48.286;8.484;2023-05-08T04:14:07;4.80;;;4.10;;
39738;SDS011;25422;48.286;8.484;2023-05-08T04:16:38;5.22;;;4.05;;
39738;SDS011;25422;48.286;8.484;2023-05-08T04:19:10;4.20;;;3.83;;
39738;SDS011;25422;48.286;8.484;2023-05-08T04:21:42;4.40;;;4.00;;
39738;SDS011;25422;48.286;8.484;2023-05-08T04:24:11;5.60;;;3.95;;
39738;SDS011;25422;48.286;8.484;2023-05-08T04:26:39;5.15;;;4.00;;
39738;SDS011;25422;48.286;8.484;2023-05-08T04:29:06;4.45;;;3.70;;
39738;SDS011;25422;48.286;8.484;2023-05-08T04:31:33;4.40;;;3.67;;
39738;SDS011;25422;48.286;8.484;2023-05-08T04:33:58;4.88;;;3.67;;
39738;SDS011;25422;48.286;8.484;2023-05-08T04:36:24;4.78;;;3.63;;
39738;SDS011;25422;48.286;8.484;2023-05-08T04:38:53;5.67;;;3.57;;
39738;SDS011;25422;48.286;8.484;2023-05-08T04:41:19;3.85;;;3.55;;
39738;SDS011;25422;48.286;8.484;2023-05-08T04:43:46;4.38;;;3.85;;
39738;SDS011;25422;48.286;8.484;2023-05-08T04:46:11;6.10;;;3.80;;
39738;SDS011;25422;48.286;8.484;2023-05-08T04:48:37;3.78;;;3.40;;
39738;SDS011;25422;48.286;8.484;2023-05-08T04:51:03;3.63;;;3.33;;
39738;SDS011;25422;48.286;8.484;2023-05-08T04:53:28;7.07;;;6.35;;
39738;SDS011;25422;48.286;8.484;2023-05-08T04:55:54;4.07;;;3.70;;
39738;SDS011;25422;48.286;8.484;2023-05-08T04:58:21;4.40;;;3.45;;
39738;SDS011;25422;48.286;8.484;2023-05-08T05:00:48;5.00;;;3.47;;
39738;SDS011;25422;48.286;8.484;2023-05-08T05:03:13;4.40;;;3.97;;
39738;SDS011;25422;48.286;8.484;2023-05-08T05:05:39;5.72;;;3.47;;
39738;SDS011;25422;48.286;8.484;2023-05-08T05:08:05;4.30;;;3.65;;
39738;SDS011;25422;48.286;8.484;2023-05-08T05:10:31;3.95;;;3.55;;
39738;SDS011;25422;48.286;8.484;2023-05-08T05:12:56;4.20;;;3.78;;
39738;SDS011;25422;48.286;8.484;2023-05-08T05:15:21;3.60;;;3.30;;
39738;SDS011;25422;48.286;8.484;2023-05-08T05:17:47;3.97;;;3.58;;
39738;SDS011;25422;48.286;8.484;2023-05-08T05:20:13;5.13;;;3.85;;
39738;SDS011;25422;48.286;8.484;2023-05-08T05:22:39;4.38;;;3.50;;
39738;SDS011;25422;48.286;8.484;2023-05-08T05:25:06;5.35;;;3.97;;
39738;SDS011;25422;48.286;8.484;2023-05-08T05:27:35;4.13;;;3.40;;
39738;SDS011;25422;48.286;8.484;2023-05-08T05:30:02;6.10;;;3.30;;
39738;SDS011;25422;48.286;8.484;2023-05-08T05:32:29;5.57;;;3.33;;
39738;SDS011;25422;48.286;8.484;2023-05-08T05:34:55;4.53;;;3.40;;
39738;SDS011;25422;48.286;8.484;2023-05-08T05:37:21;7.30;;;3.35;;
39738;SDS011;25422;48.286;8.484;2023-05-08T05:39:47;5.55;;;3.63;;
39738;SDS011;25422;48.286;8.484;2023-05-08T05:42:13;6.63;;;3.60;;
39738;SDS011;25422;48.286;8.484;2023-05-08T05:44:39;4.60;;;3.45;;
39738;SDS011;25422;48.286;8.484;2023-05-08T05:47:04;3.58;;;3.28;;
39738;SDS011;25422;48.286;8.484;2023-05-08T05:49:33;4.35;;;3.22;;
39738;SDS011;25422;48.286;8.484;2023-05-08T05:51:59;4.13;;;3.22;;
39738;SDS011;25422;48.286;8.484;2023-05-08T05:54:25;5.43;;;3.20;;
39738;SDS011;25422;48.286;8.484;2023-05-08T05:56:51;5.88;;;3.10;;
39738;SDS011;25422;48.286;8.484;2023-05-08T05:59:16;3.15;;;2.85;;
39738;SDS011;25422;48.286;8.484;2023-05-08T06:01:42;6.15;;;2.85;;
39738;SDS011;25422;48.286;8.484;2023-05-08T06:04:08;3.72;;;2.58;;
39738;SDS011;25422;48.286;8.484;2023-05-08T06:06:33;3.85;;;2.47;;
39738;SDS011;25422;48.286;8.484;2023-05-08T06:08:58;6.32;;;2.10;;
39738;SDS011;25422;48.286;8.484;2023-05-08T06:11:24;2.65;;;2.45;;
39738;SDS011;25422;48.286;8.484;2023-05-08T06:13:50;3.33;;;2.20;;
39738;SDS011;25422;48.286;8.484;2023-05-08T06:16:15;2.47;;;2.28;;
39738;SDS011;25422;48.286;8.484;2023-05-08T06:18:41;3.53;;;1.88;;
39738;SDS011;25422;48.286;8.484;2023-05-08T06:21:06;2.65;;;1.70;;
39738;SDS011;25422;48.286;8.484;2023-05-08T06:23:31;1.95;;;1.85;;
39738;SDS011;25422;48.286;8.484;2023-05-08T06:25:57;5.40;;;1.88;;
39738;SDS011;25422;48.286;8.484;2023-05-08T06:28:23;1.92;;;1.83;;
39738;SDS011;25422;48.286;8.484;2023-05-08T06:30:50;4.32;;;2.30;;
39738;SDS011;25422;48.286;8.484;2023-05-08T06:33:15;1.83;;;1.73;;
39738;SDS011;25422;48.286;8.484;2023-05-08T06:35:44;2.22;;;2.03;;
39738;SDS011;25422;48.286;8.484;2023-05-08T06:38:11;1.75;;;1.65;;
39738;SDS011;25422;48.286;8.484;2023-05-08T06:40:40;1.90;;;1.70;;
39738;SDS011;25422;48.286;8.484;2023-05-08T06:43:06;2.28;;;2.08;;
39738;SDS011;25422;48.286;8.484;2023-05-08T06:45:31;3.88;;;1.90;;
39738;SDS011;25422;48.286;8.484;2023-05-08T06:47:57;4.88;;;2.45;;
39738;SDS011;25422;48.286;8.484;2023-05-08T06:50:22;2.65;;;2.22;;
39738;SDS011;25422;48.286;8.484;2023-05-08T06:52:47;3.13;;;2.20;;
39738;SDS011;25422;48.286;8.484;2023-05-08T06:55:13;3.00;;;2.08;;
39738;SDS011;25422;48.286;8.484;2023-05-08T06:57:38;4.22;;;2.40;;
39738;SDS011;25422;48.286;8.484;2023-05-08T07:00:04;2.40;;;2.20;;
39738;SDS011;25422;48.286;8.484;2023-05-08T07:02:30;4.60;;;2.20;;
39738;SDS011;25422;48.286;8.484;2023-05-08T07:04:56;3.65;;;2.45;;
39738;SDS011;25422;48.286;8.484;2023-05-08T07:07:21;3.72;;;2.60;;
39738;SDS011;25422;48.286;8.484;2023-05-08T07:09:46;3.05;;;2.75;;
39738;SDS011;25422;48.286;8.484;2023-05-08T07:12:12;4.47;;;2.72;;
39738;SDS011;25422;48.286;8.484;2023-05-08T07:14:37;4.78;;;2.35;;
39738;SDS011;25422;48.286;8.484;2023-05-08T07:17:05;2.92;;;2.72;;
39738;SDS011;25422;48.286;8.484;2023-05-08T07:19:31;3.33;;;2.63;;
39738;SDS011;25422;48.286;8.484;2023-05-08T07:21:57;2.60;;;2.40;;
39738;SDS011;25422;48.286;8.484;2023-05-08T07:24:22;2.70;;;2.50;;
39738;SDS011;25422;48.286;8.484;2023-05-08T07:26:48;2.20;;;2.00;;
39738;SDS011;25422;48.286;8.484;2023-05-08T07:29:14;5.28;;;2.03;;
39738;SDS011;25422;48.286;8.484;2023-05-08T07:31:39;3.65;;;2.00;;
39738;SDS011;25422;48.286;8.484;2023-05-08T07:34:05;2.20;;;2.00;;
39738;SDS011;25422;48.286;8.484;2023-05-08T07:36:31;4.25;;;2.20;;
39738;SDS011;25422;48.286;8.484;2023-05-08T07:38:56;3.20;;;2.10;;
39738;SDS011;25422;48.286;8.484;2023-05-08T07:41:22;2.70;;;2.50;;
39738;SDS011;25422;48.286;8.484;2023-05-08T07:43:47;3.60;;;2.40;;
39738;SDS011;25422;48.286;8.484;2023-05-08T07:46:16;4.53;;;2.30;;
39738;SDS011;25422;48.286;8.484;2023-05-08T07:48:42;2.42;;;2.22;;
39738;SDS011;25422;48.286;8.484;2023-05-08T07:51:07;2.42;;;2.22;;
39738;SDS011;25422;48.286;8.484;2023-05-08T07:53:35;2.10;;;1.85;;
39738;SDS011;25422;48.286;8.484;2023-05-08T07:56:00;2.15;;;1.95;;
39738;SDS011;25422;48.286;8.484;2023-05-08T07:58:26;2.30;;;2.10;;
39738;SDS011;25422;48.286;8.484;2023-05-08T08:00:51;2.58;;;1.98;;
39738;SDS011;25422;48.286;8.484;2023-05-08T08:03:17;2.80;;;2.00;;
39738;SDS011;25422;48.286;8.484;2023-05-08T08:05:43;3.20;;;2.35;;
39738;SDS011;25422;48.286;8.484;2023-05-08T08:08:08;4.25;;;2.33;;
39738;SDS011;25422;48.286;8.484;2023-05-08T08:10:34;3.30;;;2.38;;
39738;SDS011;25422;48.286;8.484;2023-05-08T08:13:00;3.85;;;2.60;;
39738;SDS011;25422;48.286;8.484;2023-05-08T08:15:26;4.13;;;2.90;;
39738;SDS011;25422;48.286;8.484;2023-05-08T08:17:52;3.97;;;2.65;;
39738;SDS011;25422;48.286;8.484;2023-05-08T08:20:18;2.75;;;2.47;;
39738;SDS011;25422;48.286;8.484;2023-05-08T08:22:44;4.20;;;2.50;;
39738;SDS011;25422;48.286;8.484;2023-05-08T08:25:09;3.08;;;2.78;;
39738;SDS011;25422;48.286;8.484;2023-05-08T08:27:35;2.70;;;2.50;;
39738;SDS011;25422;48.286;8.484;2023-05-08T08:30:00;3.92;;;2.65;;
39738;SDS011;25422;48.286;8.484;2023-05-08T08:32:26;2.88;;;2.50;;
39738;SDS011;25422;48.286;8.484;2023-05-08T08:34:51;2.72;;;2.42;;
39738;SDS011;25422;48.286;8.484;2023-05-08T08:37:17;3.80;;;2.00;;
39738;SDS011;25422;48.286;8.484;2023-05-08T08:39:42;3.00;;;2.53;;
39738;SDS011;25422;48.286;8.484;2023-05-08T08:42:08;2.58;;;2.38;;
39738;SDS011;25422;48.286;8.484;2023-05-08T08:44:33;4.18;;;2.70;;
39738;SDS011;25422;48.286;8.484;2023-05-08T08:46:59;5.43;;;2.30;;
39738;SDS011;25422;48.286;8.484;2023-05-08T08:49:30;3.88;;;2.20;;
39738;SDS011;25422;48.286;8.484;2023-05-08T08:51:59;3.78;;;2.28;;
39738;SDS011;25422;48.286;8.484;2023-05-08T08:54:32;3.35;;;2.33;;
39738;SDS011;25422;48.286;8.484;2023-05-08T08:57:04;5.18;;;2.47;;
39738;SDS011;25422;48.286;8.484;2023-05-08T08:59:33;2.80;;;2.45;;
39738;SDS011;25422;48.286;8.484;2023-05-08T09:02:05;3.03;;;2.30;;
39738;SDS011;25422;48.286;8.484;2023-05-08T09:04:35;2.35;;;2.15;;
39738;SDS011;25422;48.286;8.484;2023-05-08T09:07:01;4.40;;;2.22;;
39738;SDS011;25422;48.286;8.484;2023-05-08T09:09:29;3.00;;;2.33;;
39738;SDS011;25422;48.286;8.484;2023-05-08T09:11:57;4.07;;;2.50;;
39738;SDS011;25422;48.286;8.484;2023-05-08T09:14:24;2.22;;;2.03;;
39738;SDS011;25422;48.286;8.484;2023-05-08T09:16:50;2.75;;;2.15;;
39738;SDS011;25422;48.286;8.484;2023-05-08T09:19:17;2.60;;;2.13;;
39738;SDS011;25422;48.286;8.484;2023-05-08T09:21:43;2.38;;;1.65;;
39738;SDS011;25422;48.286;8.484;2023-05-08T09:24:09;2.45;;;1.98;;
39738;SDS011;25422;48.286;8.484;2023-05-08T09:26:35;2.38;;;2.00;;
39738;SDS011;25422;48.286;8.484;2023-05-08T09:29:16;4.72;;;2.30;;
39738;SDS011;25422;48.286;8.484;2023-05-08T09:31:47;2.67;;;2.00;;
39738;SDS011;25422;48.286;8.484;2023-05-08T09:36:51;2.45;;;2.25;;
39738;SDS011;25422;48.286;8.484;2023-05-08T09:39:34;3.05;;;2.30;;
39738;SDS011;25422;48.286;8.484;2023-05-08T09:42:01;5.07;;;2.25;;
39738;SDS011;25422;48.286;8.484;2023-05-08T09:44:28;3.50;;;2.17;;
39738;SDS011;25422;48.286;8.484;2023-05-08T09:47:18;2.88;;;2.10;;
39738;SDS011;25422;48.286;8.484;2023-05-08T09:52:30;2.40;;;1.90;;
39738;SDS011;25422;48.286;8.484;2023-05-08T09:54:57;2.08;;;1.63;;
39738;SDS011;25422;48.286;8.484;2023-05-08T09:57:27;2.50;;;1.70;;
39738;SDS011;25422;48.286;8.484;2023-05-08T10:02:32;2.00;;;1.80;;
39738;SDS011;25422;48.286;8.484;2023-05-08T10:04:58;4.40;;;1.77;;
39738;SDS011;25422;48.286;8.484;2023-05-08T10:07:27;3.83;;;1.58;;
39738;SDS011;25422;48.286;8.484;2023-05-08T10:09:56;3.78;;;1.98;;
39738;SDS011;25422;48.286;8.484;2023-05-08T10:12:24;2.80;;;2.05;;
39738;SDS011;25422;48.286;8.484;2023-05-08T10:14:50;2.78;;;2.03;;
39738;SDS011;25422;48.286;8.484;2023-05-08T10:17:16;3.03;;;2.33;;
39738;SDS011;25422;48.286;8.484;2023-05-08T10:19:49;2.90;;;2.10;;
39738;SDS011;25422;48.286;8.484;2023-05-08T10:22:22;3.25;;;2.10;;
39738;SDS011;25422;48.286;8.484;2023-05-08T10:24:49;3.42;;;2.53;;
39738;SDS011;25422;48.286;8.484;2023-05-08T10:27:21;2.97;;;2.30;;
39738;SDS011;25422;48.286;8.484;2023-05-08T10:29:55;3.10;;;2.35;;
39738;SDS011;25422;48.286;8.484;2023-05-08T10:32:24;3.30;;;2.60;;
39738;SDS011;25422;48.286;8.484;2023-05-08T10:34:55;2.95;;;2.63;;
39738;SDS011;25422;48.286;8.484;2023-05-08T10:37:23;4.15;;;2.83;;
39738;SDS011;25422;48.286;8.484;2023-05-08T10:39:49;3.70;;;2.47;;
39738;SDS011;25422;48.286;8.484;2023-05-08T10:42:18;3.45;;;2.88;;
39738;SDS011;25422;48.286;8.484;2023-05-08T10:44:43;3.35;;;3.05;;
39738;SDS011;25422;48.286;8.484;2023-05-08T10:50:30;3.70;;;2.80;;
39738;SDS011;25422;48.286;8.484;2023-05-08T10:56:10;5.22;;;2.90;;
39738;SDS011;25422;48.286;8.484;2023-05-08T10:58:35;4.18;;;2.97;;
39738;SDS011;25422;48.286;8.484;2023-05-08T11:03:32;5.05;;;3.60;;
39738;SDS011;25422;48.286;8.484;2023-05-08T11:06:08;4.63;;;3.28;;
39738;SDS011;25422;48.286;8.484;2023-05-08T11:08:42;3.47;;;3.17;;
39738;SDS011;25422;48.286;8.484;2023-05-08T11:11:16;4.22;;;3.50;;
39738;SDS011;25422;48.286;8.484;2023-05-08T11:19:19;4.80;;;4.18;;
39738;SDS011;25422;48.286;8.484;2023-05-08T11:24:37;4.20;;;3.80;;
39738;SDS011;25422;48.286;8.484;2023-05-08T11:27:03;6.45;;;4.63;;
39738;SDS011;25422;48.286;8.484;2023-05-08T11:29:29;5.13;;;4.63;;
39738;SDS011;25422;48.286;8.484;2023-05-08T11:31:55;6.57;;;5.57;;
39738;SDS011;25422;48.286;8.484;2023-05-08T11:37:11;6.43;;;5.45;;
39738;SDS011;25422;48.286;8.484;2023-05-08T11:39:41;7.15;;;5.65;;
39738;SDS011;25422;48.286;8.484;2023-05-08T11:47:42;9.07;;;6.82;;
39738;SDS011;25422;48.286;8.484;2023-05-08T11:50:12;10.38;;;6.90;;
39738;SDS011;25422;48.286;8.484;2023-05-08T11:55:05;8.70;;;6.65;;
39738;SDS011;25422;48.286;8.484;2023-05-08T11:57:32;6.75;;;6.03;;
39738;SDS011;25422;48.286;8.484;2023-05-08T12:00:04;7.55;;;6.72;;
39738;SDS011;25422;48.286;8.484;2023-05-08T12:02:38;7.22;;;6.53;;
39738;SDS011;25422;48.286;8.484;2023-05-08T12:05:08;7.13;;;6.43;;
39738;SDS011;25422;48.286;8.484;2023-05-08T12:07:47;9.68;;;6.68;;
39738;SDS011;25422;48.286;8.484;2023-05-08T12:10:12;8.38;;;6.72;;
39738;SDS011;25422;48.286;8.484;2023-05-08T12:12:39;7.72;;;6.90;;
39738;SDS011;25422;48.286;8.484;2023-05-08T12:15:12;7.50;;;6.72;;
39738;SDS011;25422;48.286;8.484;2023-05-08T12:17:38;7.55;;;6.00;;
39738;SDS011;25422;48.286;8.484;2023-05-08T12:20:11;8.80;;;6.63;;
39738;SDS011;25422;48.286;8.484;2023-05-08T12:22:41;8.50;;;6.20;;
39738;SDS011;25422;48.286;8.484;2023-05-08T12:25:13;6.90;;;6.20;;
39738;SDS011;25422;48.286;8.484;2023-05-08T12:27:41;7.47;;;6.65;;
39738;SDS011;25422;48.286;8.484;2023-05-08T12:30:08;8.75;;;5.65;;
39738;SDS011;25422;48.286;8.484;2023-05-08T12:32:39;7.72;;;6.50;;
39738;SDS011;25422;48.286;8.484;2023-05-08T12:35:06;5.53;;;5.03;;
39738;SDS011;25422;48.286;8.484;2023-05-08T12:37:32;8.68;;;7.35;;
39738;SDS011;25422;48.286;8.484;2023-05-08T12:39:58;7.15;;;5.10;;
39738;SDS011;25422;48.286;8.484;2023-05-08T12:45:15;6.03;;;5.40;;
39738;SDS011;25422;48.286;8.484;2023-05-08T12:47:47;6.45;;;5.65;;
39738;SDS011;25422;48.286;8.484;2023-05-08T12:50:13;5.93;;;5.40;;
39738;SDS011;25422;48.286;8.484;2023-05-08T12:52:40;8.02;;;5.85;;
39738;SDS011;25422;48.286;8.484;2023-05-08T12:55:18;6.60;;;6.00;;
39738;SDS011;25422;48.286;8.484;2023-05-08T12:58:10;6.68;;;5.10;;
39738;SDS011;25422;48.286;8.484;2023-05-08T13:00:37;5.32;;;4.82;;
39738;SDS011;25422;48.286;8.484;2023-05-08T13:03:05;5.68;;;5.05;;
39738;SDS011;25422;48.286;8.484;2023-05-08T13:05:33;5.25;;;4.75;;
39738;SDS011;25422;48.286;8.484;2023-05-08T13:08:01;9.98;;;8.18;;
39738;SDS011;25422;48.286;8.484;2023-05-08T13:13:13;8.30;;;6.05;;
39738;SDS011;25422;48.286;8.484;2023-05-08T13:15:40;9.95;;;7.88;;
39738;SDS011;25422;48.286;8.484;2023-05-08T13:18:05;11.48;;;8.50;;
39738;SDS011;25422;48.286;8.484;2023-05-08T13:20:32;9.63;;;8.15;;
39738;SDS011;25422;48.286;8.484;2023-05-08T13:22:58;12.18;;;9.85;;
39738;SDS011;25422;48.286;8.484;2023-05-08T13:25:23;10.75;;;9.02;;
39738;SDS011;25422;48.286;8.484;2023-05-08T13:27:49;11.43;;;9.30;;
39738;SDS011;25422;48.286;8.484;2023-05-08T13:30:14;13.05;;;9.85;;
39738;SDS011;25422;48.286;8.484;2023-05-08T13:32:40;10.18;;;9.18;;
39738;SDS011;25422;48.286;8.484;2023-05-08T13:35:06;9.70;;;8.75;;
39738;SDS011;25422;48.286;8.484;2023-05-08T13:37:39;8.07;;;7.28;;
39738;SDS011;25422;48.286;8.484;2023-05-08T13:40:18;9.75;;;7.30;;
39738;SDS011;25422;48.286;8.484;2023-05-08T13:42:43;8.60;;;7.38;;
39738;SDS011;25422;48.286;8.484;2023-05-08T13:45:09;8.43;;;7.25;;
39738;SDS011;25422;48.286;8.484;2023-05-08T13:47:35;8.25;;;7.45;;
39738;SDS011;25422;48.286;8.484;2023-05-08T13:50:01;8.00;;;7.20;;
39738;SDS011;25422;48.286;8.484;2023-05-08T13:52:27;7.18;;;6.50;;
39738;SDS011;25422;48.286;8.484;2023-05-08T13:54:55;7.47;;;6.63;;
39738;SDS011;25422;48.286;8.484;2023-05-08T13:57:22;8.30;;;6.82;;
39738;SDS011;25422;48.286;8.484;2023-05-08T13:59:48;9.00;;;6.43;;
39738;SDS011;25422;48.286;8.484;2023-05-08T14:02:13;6.28;;;5.68;;
39738;SDS011;25422;48.286;8.484;2023-05-08T14:04:39;6.43;;;4.85;;
39738;SDS011;25422;48.286;8.484;2023-05-08T14:07:05;6.45;;;5.00;;
39738;SDS011;25422;48.286;8.484;2023-05-08T14:09:31;7.30;;;5.45;;
39738;SDS011;25422;48.286;8.484;2023-05-08T14:11:57;7.47;;;6.68;;
39738;SDS011;25422;48.286;8.484;2023-05-08T14:14:22;6.03;;;5.22;;
39738;SDS011;25422;48.286;8.484;2023-05-08T14:16:48;6.68;;;5.10;;
39738;SDS011;25422;48.286;8.484;2023-05-08T14:19:15;4.47;;;4.07;;
39738;SDS011;25422;48.286;8.484;2023-05-08T14:21:40;4.38;;;3.97;;
39738;SDS011;25422;48.286;8.484;2023-05-08T14:24:06;4.93;;;4.50;;
39738;SDS011;25422;48.286;8.484;2023-05-08T14:26:32;5.47;;;4.35;;
39738;SDS011;25422;48.286;8.484;2023-05-08T14:28:58;4.65;;;4.25;;
39738;SDS011;25422;48.286;8.484;2023-05-08T14:31:23;5.80;;;4.70;;
39738;SDS011;25422;48.286;8.484;2023-05-08T14:33:49;3.83;;;3.47;;
39738;SDS011;25422;48.286;8.484;2023-05-08T14:36:14;4.35;;;3.95;;
39738;SDS011;25422;48.286;8.484;2023-05-08T14:38:39;3.13;;;2.83;;
39738;SDS011;25422;48.286;8.484;2023-05-08T14:41:05;3.45;;;2.78;;
39738;SDS011;25422;48.286;8.484;2023-05-08T14:43:30;3.17;;;2.35;;
39738;SDS011;25422;48.286;8.484;2023-05-08T14:45:56;2.63;;;2.42;;
39738;SDS011;25422;48.286;8.484;2023-05-08T14:48:21;3.30;;;2.78;;
39738;SDS011;25422;48.286;8.484;2023-05-08T14:50:47;3.78;;;2.72;;
39738;SDS011;25422;48.286;8.484;2023-05-08T14:53:12;3.45;;;3.00;;
39738;SDS011;25422;48.286;8.484;2023-05-08T14:55:37;3.88;;;3.13;;
39738;SDS011;25422;48.286;8.484;2023-05-08T14:58:03;3.13;;;2.80;;
39738;SDS011;25422;48.286;8.484;2023-05-08T15:00:28;3.78;;;3.42;;
39738;SDS011;25422;48.286;8.484;2023-05-08T15:02:53;3.40;;;3.10;;
39738;SDS011;25422;48.286;8.484;2023-05-08T15:05:19;5.13;;;3.60;;
39738;SDS011;25422;48.286;8.484;2023-05-08T15:07:44;4.60;;;3.78;;
39738;SDS011;25422;48.286;8.484;2023-05-08T15:10:10;6.15;;;4.05;;
39738;SDS011;25422;48.286;8.484;2023-05-08T15:12:35;3.95;;;3.50;;
39738;SDS011;25422;48.286;8.484;2023-05-08T15:15:01;6.50;;;4.15;;
39738;SDS011;25422;48.286;8.484;2023-05-08T15:17:26;5.10;;;4.18;;
39738;SDS011;25422;48.286;8.484;2023-05-08T15:19:51;4.88;;;4.43;;
39738;SDS011;25422;48.286;8.484;2023-05-08T15:22:17;6.47;;;4.45;;
39738;SDS011;25422;48.286;8.484;2023-05-08T15:24:42;4.85;;;4.38;;
39738;SDS011;25422;48.286;8.484;2023-05-08T15:27:08;5.45;;;4.30;;
39738;SDS011;25422;48.286;8.484;2023-05-08T15:29:34;5.00;;;4.47;;
39738;SDS011;25422;48.286;8.484;2023-05-08T15:32:00;4.70;;;3.53;;
39738;SDS011;25422;48.286;8.484;2023-05-08T15:34:26;8.10;;;4.13;;
39738;SDS011;25422;48.286;8.484;2023-05-08T15:36:51;4.25;;;3.45;;
39738;SDS011;25422;48.286;8.484;2023-05-08T15:39:17;4.80;;;4.10;;
39738;SDS011;25422;48.286;8.484;2023-05-08T15:41:42;4.22;;;3.83;;
39738;SDS011;25422;48.286;8.484;2023-05-08T15:44:08;4.10;;;3.80;;
39738;SDS011;25422;48.286;8.484;2023-05-08T15:46:34;4.40;;;3.88;;
39738;SDS011;25422;48.286;8.484;2023-05-08T15:48:59;4.18;;;3.50;;
39738;SDS011;25422;48.286;8.484;2023-05-08T15:51:25;4.28;;;3.80;;
39738;SDS011;25422;48.286;8.484;2023-05-08T15:53:50;4.15;;;3.75;;
39738;SDS011;25422;48.286;8.484;2023-05-08T15:56:16;4.32;;;3.30;;
39738;SDS011;25422;48.286;8.484;2023-05-08T15:58:45;3.90;;;3.60;;
39738;SDS011;25422;48.286;8.484;2023-05-08T16:01:10;3.53;;;3.05;;